Time;durP1;ratioP1;P1;durP2;ratioP2;P2;SDS_P1;SDS_P2;PMS_P1;PMS_P2;Temp;Humidity;BMP_temperature;BMP_pressure;BME280_temperature;BME280_humidity;BME280_pressure;Samples;Min_cycle;Max_cycle;Signal;HPM_P1;HPM_P2
2023/01/29 00:01:48;;;;;;;;;;;-1.10;99.90;;;;;;5038676;28;19909;-81
2023/01/29 00:04:14;;;;;;;;;;;-1.10;99.90;;;;;;5058451;28;20278;-81
2023/01/29 00:06:39;;;;;;;;;;;-1.00;99.90;;;;;;5081361;28;19913;-81
2023/01/29 00:09:05;;;;;;;;;;;-1.10;99.90;;;;;;5067132;28;19909;-82
2023/01/29 00:11:30;;;;;;;;;;;-1.10;99.90;;;;;;5075219;28;20556;-81
2023/01/29 00:13:56;;;;;;;;;;;-1.10;99.90;;;;;;5059002;28;20222;-81
2023/01/29 00:16:22;;;;;;;;;;;-1.10;99.90;;;;;;5076801;28;19962;-82
2023/01/29 00:18:47;;;;;;;;;;;-1.10;99.90;;;;;;5076032;28;20369;-82
2023/01/29 00:21:14;;;;;;;;;;;-1.10;99.90;;;;;;5076907;28;19908;-82
2023/01/29 00:23:40;;;;;;;;;;;-1.10;99.90;;;;;;5059226;28;19913;-80
2023/01/29 00:26:06;;;;;;;;;;;-1.10;99.90;;;;;;5075168;28;19921;-82
2023/01/29 00:28:31;;;;;;;;;;;-1.10;99.90;;;;;;5077182;28;20479;-82
2023/01/29 00:30:57;;;;;;;;;;;-1.10;99.90;;;;;;5076296;28;19923;-81
2023/01/29 00:33:22;;;;;;;;;;;-1.10;99.90;;;;;;5076393;28;19909;-82
2023/01/29 00:35:53;;;;;;;;;;;-1.10;99.90;;;;;;5076577;28;19954;-81
2023/01/29 00:38:18;;;;;;;;;;;-1.10;99.90;;;;;;5073085;28;19912;-82
2023/01/29 00:46:12;;;;;;;;;;;-1.10;99.90;;;;;;5056714;28;19915;-82
2023/01/29 00:48:38;;;;;;;;;;;-1.10;99.90;;;;;;5056406;28;19909;-82
2023/01/29 00:51:03;;;;;;;;;;;-1.10;99.90;;;;;;5056546;28;19916;-82
2023/01/29 00:53:29;;;;;;;;;;;-1.10;99.90;;;;;;5038326;28;19961;-82
2023/01/29 00:55:54;;;;;;;;;;;-1.10;99.90;;;;;;5056294;28;19958;-81
2023/01/29 00:58:21;;;;;;;;;;;-1.20;99.90;;;;;;5056669;28;20382;-82
2023/01/29 01:00:49;;;;;;;;;;;-1.20;99.90;;;;;;5056324;28;20511;-82
2023/01/29 01:03:15;;;;;;;;;;;-1.20;99.90;;;;;;5038098;28;20358;-82
2023/01/29 01:05:41;;;;;;;;;;;-1.20;99.90;;;;;;5056070;28;19995;-82
2023/01/29 01:10:19;;;;;;;;;;;-1.20;99.90;;;;;;5038367;28;20378;-81
2023/01/29 01:11:01;;;;;;;;;;;-1.20;99.90;;;;;;5055513;28;20374;-81
2023/01/29 01:13:26;;;;;;;;;;;-1.20;99.90;;;;;;5038549;28;20290;-82
2023/01/29 01:15:52;;;;;;;;;;;-1.20;99.90;;;;;;5054587;28;19915;-82
2023/01/29 01:18:21;;;;;;;;;;;-1.20;99.90;;;;;;5056183;28;19909;-81
2023/01/29 01:20:50;;;;;;;;;;;-1.20;99.90;;;;;;5054370;28;19909;-82
2023/01/29 01:23:18;;;;;;;;;;;-1.20;99.90;;;;;;5037581;28;19912;-81
2023/01/29 01:25:45;;;;;;;;;;;-1.20;99.90;;;;;;5054287;28;19916;-81
2023/01/29 01:28:11;;;;;;;;;;;-1.30;99.90;;;;;;5055637;28;19909;-82
2023/01/29 01:30:36;;;;;;;;;;;-1.20;99.90;;;;;;5038095;28;19932;-82
2023/01/29 01:33:02;;;;;;;;;;;-1.30;99.90;;;;;;5038220;28;19913;-81
2023/01/29 01:35:27;;;;;;;;;;;-1.30;99.90;;;;;;5055299;28;19960;-82
2023/01/29 01:37:53;;;;;;;;;;;-1.30;99.90;;;;;;5037152;28;19913;-82
2023/01/29 01:40:19;;;;;;;;;;;-1.30;99.90;;;;;;5055270;28;19931;-82
2023/01/29 01:42:52;;;;;;;;;;;-1.30;99.90;;;;;;5037048;28;19923;-81
2023/01/29 01:45:20;;;;;;;;;;;-1.40;99.90;;;;;;5055167;28;19908;-82
2023/01/29 01:47:47;;;;;;;;;;;-1.40;99.90;;;;;;5036205;28;19916;-81
2023/01/29 01:50:15;;;;;;;;;;;-1.40;99.90;;;;;;5036944;28;20377;-82
2023/01/29 01:52:42;;;;;;;;;;;-1.40;99.90;;;;;;5036681;28;19916;-82
2023/01/29 01:55:11;;;;;;;;;;;-1.40;99.90;;;;;;5054403;28;20344;-82
2023/01/29 01:57:36;;;;;;;;;;;-1.50;99.90;;;;;;5036760;28;19912;-82
2023/01/29 02:00:11;;;;;;;;;;;-1.50;99.90;;;;;;5053792;28;19993;-81
2023/01/29 02:10:58;;;;;;;;;;;-1.50;99.90;;;;;;5053349;28;19916;-81
2023/01/29 02:13:23;;;;;;;;;;;-1.50;99.90;;;;;;5053131;28;19909;-82
2023/01/29 02:15:49;;;;;;;;;;;-1.50;99.90;;;;;;5035140;28;19909;-81
2023/01/29 02:18:16;;;;;;;;;;;-1.50;99.90;;;;;;5035319;28;19909;-82
2023/01/29 02:20:43;;;;;;;;;;;-1.50;99.90;;;;;;5054045;28;19909;-81
2023/01/29 02:23:28;;;;;;;;;;;-1.50;99.90;;;;;;5034895;28;19916;-81
2023/01/29 02:26:08;;;;;;;;;;;-1.50;99.90;;;;;;5052795;28;20366;-81
2023/01/29 02:28:54;;;;;;;;;;;-1.50;99.90;;;;;;5035215;28;19908;-81
2023/01/29 02:31:35;;;;;;;;;;;-1.50;99.90;;;;;;5051804;28;19940;-81
2023/01/29 02:34:19;;;;;;;;;;;-1.60;99.90;;;;;;5035054;28;20007;-81
2023/01/29 02:36:56;;;;;;;;;;;-1.60;99.90;;;;;;5051359;28;20360;-81
2023/01/29 02:39:22;;;;;;;;;;;-1.60;99.90;;;;;;5052875;28;20015;-81
2023/01/29 02:42:06;;;;;;;;;;;-1.60;99.90;;;;;;5052382;28;20378;-81
2023/01/29 02:44:36;;;;;;;;;;;-1.60;99.90;;;;;;5052579;28;20329;-81
2023/01/29 02:47:20;;;;;;;;;;;-1.60;99.90;;;;;;5034650;28;19938;-81
2023/01/29 02:49:49;;;;;;;;;;;-1.60;99.90;;;;;;5052529;28;19908;-81
2023/01/29 02:52:17;;;;;;;;;;;-1.60;99.90;;;;;;5034399;28;20004;-81
2023/01/29 02:54:45;;;;;;;;;;;-1.60;99.90;;;;;;5052580;28;20354;-81
2023/01/29 02:57:16;;;;;;;;;;;-1.60;99.90;;;;;;5052363;28;19916;-82
2023/01/29 02:59:48;;;;;;;;;;;-1.60;99.90;;;;;;5052326;28;20256;-80
2023/01/29 03:02:16;;;;;;;;;;;-1.60;99.90;;;;;;5034277;28;20318;-81
2023/01/29 03:04:45;;;;;;;;;;;-1.60;99.90;;;;;;5052269;28;20305;-81
2023/01/29 03:07:21;;;;;;;;;;;-1.70;99.90;;;;;;5052417;28;19909;-81
2023/01/29 03:09:48;;;;;;;;;;;-1.70;99.90;;;;;;5052398;28;19912;-81
2023/01/29 03:12:27;;;;;;;;;;;-1.70;99.90;;;;;;5034237;28;20398;-81
2023/01/29 03:15:13;;;;;;;;;;;-1.70;99.90;;;;;;5052026;28;19909;-81
2023/01/29 03:17:46;;;;;;;;;;;-1.80;99.90;;;;;;5052459;28;20401;-81
2023/01/29 03:20:14;;;;;;;;;;;-1.80;99.90;;;;;;5034622;28;19909;-82
2023/01/29 03:22:42;;;;;;;;;;;-1.80;99.90;;;;;;5051982;28;20007;-81
2023/01/29 03:33:42;;;;;;;;;;;-2.00;99.90;;;;;;5052566;28;19920;-82
2023/01/29 03:36:09;;;;;;;;;;;-2.00;99.90;;;;;;5034197;28;20374;-81
2023/01/29 03:38:35;;;;;;;;;;;-1.90;99.90;;;;;;5034201;28;19958;-80
2023/01/29 03:41:23;;;;;;;;;;;-1.90;99.90;;;;;;5034127;28;20362;-81
2023/01/29 03:43:49;;;;;;;;;;;-1.90;99.90;;;;;;5043652;28;19912;-81
2023/01/29 03:46:17;;;;;;;;;;;-1.90;99.90;;;;;;5051973;28;19909;-81
2023/01/29 03:48:43;;;;;;;;;;;-1.90;99.90;;;;;;5052016;28;19913;-81
2023/01/29 03:51:23;;;;;;;;;;;-1.90;99.90;;;;;;5050689;28;20009;-82
2023/01/29 03:53:52;;;;;;;;;;;-1.90;99.90;;;;;;5034068;28;20398;-81
2023/01/29 03:56:24;;;;;;;;;;;-1.90;99.90;;;;;;5052010;28;20374;-82
2023/01/29 03:59:00;;;;;;;;;;;-1.80;99.90;;;;;;5051720;28;19908;-80
2023/01/29 04:01:32;;;;;;;;;;;-1.80;99.90;;;;;;5051726;28;20437;-81
2023/01/29 04:04:02;;;;;;;;;;;-1.80;99.90;;;;;;5051898;28;20263;-80
2023/01/29 04:06:31;;;;;;;;;;;-1.80;99.90;;;;;;5051856;28;19971;-81
2023/01/29 04:09:05;;;;;;;;;;;-1.80;99.90;;;;;;5033998;28;19979;-81
2023/01/29 04:11:32;;;;;;;;;;;-1.80;99.90;;;;;;5054672;28;19909;-81
2023/01/29 04:13:58;;;;;;;;;;;-1.70;99.90;;;;;;5055276;28;19909;-81
2023/01/29 04:16:26;;;;;;;;;;;-1.70;99.90;;;;;;5055443;28;19916;-81
2023/01/29 04:18:53;;;;;;;;;;;-1.80;99.90;;;;;;5037452;28;19916;-81
2023/01/29 04:21:18;;;;;;;;;;;-1.80;99.90;;;;;;5055108;28;19959;-82
2023/01/29 04:23:44;;;;;;;;;;;-1.80;99.90;;;;;;5055230;28;19912;-81
2023/01/29 04:26:12;;;;;;;;;;;-1.80;99.90;;;;;;5054660;28;19960;-82
2023/01/29 04:28:58;;;;;;;;;;;-1.90;99.90;;;;;;5054893;28;19909;-82
2023/01/29 04:31:27;;;;;;;;;;;-1.90;99.90;;;;;;5045177;28;19909;-82
2023/01/29 04:34:24;;;;;;;;;;;-1.90;99.90;;;;;;5056586;28;19909;-81
2023/01/29 04:37:14;;;;;;;;;;;-1.90;99.90;;;;;;5022728;28;19909;-81
2023/01/29 04:40:02;;;;;;;;;;;-1.90;99.90;;;;;;5056236;28;19963;-82
2023/01/29 04:42:34;;;;;;;;;;;-1.90;99.90;;;;;;5056248;28;19920;-81
2023/01/29 04:45:03;;;;;;;;;;;-1.90;99.90;;;;;;5056612;28;19909;-82
2023/01/29 04:47:36;;;;;;;;;;;-1.90;99.90;;;;;;5054874;28;20011;-81
2023/01/29 04:50:13;;;;;;;;;;;-1.80;99.90;;;;;;5038588;28;19931;-81
2023/01/29 04:52:44;;;;;;;;;;;-1.80;99.90;;;;;;5055784;28;19931;-80
2023/01/29 04:55:24;;;;;;;;;;;-1.70;99.90;;;;;;5055811;28;19909;-82
2023/01/29 04:58:05;;;;;;;;;;;-1.60;99.90;;;;;;5038671;28;20461;-81
2023/01/29 05:00:34;;;;;;;;;;;-1.60;99.90;;;;;;5054439;28;20003;-82
2023/01/29 05:03:00;;;;;;;;;;;-1.60;99.90;;;;;;5055922;28;19912;-80
2023/01/29 05:05:26;;;;;;;;;;;-1.60;99.90;;;;;;5038347;28;20352;-80
2023/01/29 05:07:53;;;;;;;;;;;-1.60;99.90;;;;;;5038740;28;19913;-80
2023/01/29 05:10:19;;;;;;;;;;;-1.60;99.90;;;;;;5056396;28;20357;-80
2023/01/29 05:12:46;;;;;;;;;;;-1.60;99.90;;;;;;5056297;28;19920;-80
2023/01/29 05:15:14;;;;;;;;;;;-1.70;99.90;;;;;;5038736;28;19916;-80
2023/01/29 05:17:41;;;;;;;;;;;-1.70;99.90;;;;;;5056103;28;19915;-80
2023/01/29 05:20:07;;;;;;;;;;;-1.70;99.90;;;;;;5056681;28;19919;-80
2023/01/29 05:22:35;;;;;;;;;;;-1.70;99.90;;;;;;5037852;28;19913;-80
2023/01/29 05:25:01;;;;;;;;;;;-1.60;99.90;;;;;;5077832;22;19934;-79
2023/01/29 05:30:17;;;;;;;;;;;-1.70;99.90;;;;;;5037376;28;19958;-80
2023/01/29 05:32:42;;;;;;;;;;;-1.70;99.90;;;;;;5017619;28;20376;-79
2023/01/29 05:35:08;;;;;;;;;;;-1.70;99.90;;;;;;5036250;28;19909;-80
2023/01/29 05:37:33;;;;;;;;;;;-1.70;99.90;;;;;;5034531;28;20363;-80
2023/01/29 05:39:59;;;;;;;;;;;-1.70;99.90;;;;;;5038030;28;19962;-80
2023/01/29 05:42:24;;;;;;;;;;;-1.70;99.90;;;;;;5037871;28;20384;-80
2023/01/29 05:44:50;;;;;;;;;;;-1.70;99.90;;;;;;5038297;28;19932;-80
2023/01/29 05:47:19;;;;;;;;;;;-1.70;99.90;;;;;;5038355;28;20036;-80
2023/01/29 05:49:44;;;;;;;;;;;-1.60;99.90;;;;;;5038784;28;19913;-79
2023/01/29 05:52:09;;;;;;;;;;;-1.70;99.90;;;;;;5056269;28;19931;-80
2023/01/29 05:54:35;;;;;;;;;;;-1.60;99.90;;;;;;5037738;28;20028;-80
2023/01/29 05:57:00;;;;;;;;;;;-1.60;99.90;;;;;;5056023;28;19920;-80
2023/01/29 05:59:26;;;;;;;;;;;-1.60;99.90;;;;;;5055715;28;19916;-80
2023/01/29 06:01:51;;;;;;;;;;;-1.60;99.90;;;;;;5034120;28;19920;-80
2023/01/29 06:04:17;;;;;;;;;;;-1.60;99.90;;;;;;5036816;28;19913;-78
2023/01/29 06:06:42;;;;;;;;;;;-1.60;99.90;;;;;;5037411;28;20324;-78
2023/01/29 06:09:09;;;;;;;;;;;-1.60;99.90;;;;;;5055265;28;19916;-81
2023/01/29 06:11:34;;;;;;;;;;;-1.60;99.90;;;;;;5055265;28;19908;-80
2023/01/29 06:14:00;;;;;;;;;;;-1.60;99.90;;;;;;5055055;28;19909;-79
2023/01/29 06:16:25;;;;;;;;;;;-1.60;99.90;;;;;;5054937;28;19908;-80
2023/01/29 06:18:50;;;;;;;;;;;-1.50;99.90;;;;;;5055198;28;19913;-80
2023/01/29 06:21:16;;;;;;;;;;;-1.60;99.90;;;;;;5036483;28;19909;-79
2023/01/29 06:23:41;;;;;;;;;;;-1.60;99.90;;;;;;5055377;28;20378;-79
2023/01/29 06:26:11;;;;;;;;;;;-1.60;99.90;;;;;;5054835;28;19924;-80
2023/01/29 06:28:37;;;;;;;;;;;-1.60;99.90;;;;;;5037300;28;19916;-80
2023/01/29 06:31:03;;;;;;;;;;;-1.60;99.90;;;;;;5032973;28;19910;-80
2023/01/29 06:33:29;;;;;;;;;;;-1.60;99.90;;;;;;5042812;28;19909;-80
2023/01/29 06:35:57;;;;;;;;;;;-1.60;99.90;;;;;;5034426;28;19952;-80
2023/01/29 06:38:23;;;;;;;;;;;-1.60;99.90;;;;;;5016968;28;19919;-80
2023/01/29 06:40:49;;;;;;;;;;;-1.60;99.90;;;;;;5017132;28;20337;-80
2023/01/29 06:43:14;;;;;;;;;;;-1.60;99.90;;;;;;5034942;28;19959;-79
2023/01/29 06:45:50;;;;;;;;;;;-1.60;99.90;;;;;;5016705;28;19916;-78
2023/01/29 06:48:16;;;;;;;;;;;-1.60;99.90;;;;;;5034554;28;20494;-80
2023/01/29 06:50:41;;;;;;;;;;;-1.60;99.90;;;;;;5016904;28;19956;-79
2023/01/29 06:53:07;;;;;;;;;;;-1.60;99.90;;;;;;5034543;28;19916;-80
2023/01/29 06:55:33;;;;;;;;;;;-1.60;99.90;;;;;;5034217;28;19909;-79
2023/01/29 06:57:58;;;;;;;;;;;-1.70;99.90;;;;;;5016634;28;19916;-80
2023/01/29 07:00:24;;;;;;;;;;;-1.60;99.90;;;;;;5016901;28;19916;-80
2023/01/29 07:02:49;;;;;;;;;;;-1.70;99.90;;;;;;5033963;28;19913;-80
2023/01/29 07:05:15;;;;;;;;;;;-1.60;99.90;;;;;;5034159;28;19916;-80
2023/01/29 07:07:40;;;;;;;;;;;-1.60;99.90;;;;;;5016263;28;19913;-80
2023/01/29 07:10:06;;;;;;;;;;;-1.50;99.90;;;;;;5034078;28;19909;-80
2023/01/29 07:12:32;;;;;;;;;;;-1.40;99.90;;;;;;5034081;28;20011;-80
2023/01/29 07:14:57;;;;;;;;;;;-1.40;99.90;;;;;;5018125;28;19910;-80
2023/01/29 07:17:22;;;;;;;;;;;-1.20;99.90;;;;;;5033269;28;20376;-79
2023/01/29 07:19:48;;;;;;;;;;;-1.10;99.90;;;;;;5016262;28;19915;-79
2023/01/29 07:22:15;;;;;;;;;;;-1.00;99.90;;;;;;5016065;28;19916;-79
2023/01/29 07:24:40;;;;;;;;;;;-1.00;99.90;;;;;;5033427;28;19909;-80
2023/01/29 07:27:06;;;;;;;;;;;-0.90;99.90;;;;;;5015979;28;19986;-80
2023/01/29 07:29:31;;;;;;;;;;;-0.80;99.90;;;;;;5033182;28;19913;-79
2023/01/29 07:31:57;;;;;;;;;;;-0.70;99.90;;;;;;5015760;28;19909;-80
2023/01/29 07:34:22;;;;;;;;;;;-0.70;99.90;;;;;;5033601;28;19909;-81
2023/01/29 07:36:47;;;;;;;;;;;-0.60;99.90;;;;;;5015960;28;19909;-80
2023/01/29 07:39:13;;;;;;;;;;;-0.50;99.90;;;;;;5015788;28;19916;-79
2023/01/29 07:41:39;;;;;;;;;;;-0.50;99.90;;;;;;5015743;28;19909;-80
2023/01/29 07:44:04;;;;;;;;;;;-0.50;99.90;;;;;;5033736;28;19972;-79
2023/01/29 07:46:30;;;;;;;;;;;-0.40;99.90;;;;;;5018812;28;19913;-80
2023/01/29 07:48:57;;;;;;;;;;;-0.30;99.90;;;;;;5038282;28;20302;-79
2023/01/29 07:51:22;;;;;;;;;;;-0.30;99.90;;;;;;5019437;28;19963;-80
2023/01/29 07:53:47;;;;;;;;;;;-0.30;99.90;;;;;;5037034;28;19909;-80
2023/01/29 07:56:13;;;;;;;;;;;-0.20;99.90;;;;;;5018901;28;20004;-80
2023/01/29 07:58:39;;;;;;;;;;;-0.10;99.90;;;;;;5037009;28;20274;-80
2023/01/29 08:01:07;;;;;;;;;;;-0.10;99.90;;;;;;5037283;28;19944;-81
2023/01/29 08:03:32;;;;;;;;;;;0.00;99.90;;;;;;5019753;28;20306;-81
2023/01/29 08:05:58;;;;;;;;;;;0.10;99.90;;;;;;5019554;28;19917;-79
2023/01/29 08:08:24;;;;;;;;;;;0.10;99.90;;;;;;5036527;28;20358;-80
2023/01/29 08:10:50;;;;;;;;;;;0.10;99.90;;;;;;5036596;28;19909;-80
2023/01/29 08:13:15;;;;;;;;;;;0.20;99.90;;;;;;5018685;28;20015;-80
2023/01/29 08:15:44;;;;;;;;;;;0.20;99.90;;;;;;5036826;28;20339;-79
2023/01/29 08:18:10;;;;;;;;;;;0.20;99.90;;;;;;5036620;28;19944;-80
2023/01/29 08:20:35;;;;;;;;;;;0.20;99.90;;;;;;5036553;28;20411;-79
2023/01/29 08:23:03;;;;;;;;;;;0.20;99.90;;;;;;5018264;28;19923;-80
2023/01/29 08:25:28;;;;;;;;;;;0.20;99.90;;;;;;5036514;28;19917;-80
2023/01/29 08:27:55;;;;;;;;;;;0.20;99.90;;;;;;5018751;28;20000;-80
2023/01/29 08:30:21;;;;;;;;;;;0.20;99.90;;;;;;5018737;28;20380;-79
2023/01/29 08:32:46;;;;;;;;;;;0.20;99.90;;;;;;5036323;28;19996;-80
2023/01/29 08:35:11;;;;;;;;;;;0.30;99.90;;;;;;5036369;28;20259;-80
2023/01/29 08:37:37;;;;;;;;;;;0.40;99.90;;;;;;5036598;28;19909;-79
2023/01/29 08:40:02;;;;;;;;;;;0.40;99.90;;;;;;5036823;28;19916;-80
2023/01/29 08:42:28;;;;;;;;;;;0.30;99.90;;;;;;5036817;28;19919;-80
2023/01/29 08:44:53;;;;;;;;;;;0.30;99.90;;;;;;5019360;28;19959;-79
2023/01/29 08:47:19;;;;;;;;;;;0.30;99.90;;;;;;5036207;28;20359;-79
2023/01/29 08:49:44;;;;;;;;;;;0.30;99.90;;;;;;5018213;28;19999;-80
2023/01/29 08:52:10;;;;;;;;;;;0.30;99.90;;;;;;5017778;28;19909;-79
2023/01/29 08:54:35;;;;;;;;;;;0.30;99.90;;;;;;5035906;28;19913;-79
2023/01/29 08:57:01;;;;;;;;;;;0.30;99.90;;;;;;5035492;28;20000;-79
2023/01/29 08:59:26;;;;;;;;;;;0.40;99.90;;;;;;5036267;28;20382;-80
2023/01/29 09:01:51;;;;;;;;;;;0.40;99.90;;;;;;5017565;28;20003;-79
2023/01/29 09:04:17;;;;;;;;;;;0.40;99.90;;;;;;5017485;28;19913;-79
2023/01/29 09:06:42;;;;;;;;;;;0.40;99.90;;;;;;5035688;28;19954;-79
2023/01/29 09:09:08;;;;;;;;;;;0.40;99.90;;;;;;5035937;28;19916;-80
2023/01/29 09:11:33;;;;;;;;;;;0.50;99.90;;;;;;5035249;28;19964;-80
2023/01/29 09:13:59;;;;;;;;;;;0.50;99.90;;;;;;5017473;28;19909;-80
2023/01/29 09:16:24;;;;;;;;;;;0.60;99.90;;;;;;5034739;28;19909;-80
2023/01/29 09:18:51;;;;;;;;;;;0.70;99.90;;;;;;5017817;28;20051;-80
2023/01/29 09:21:17;;;;;;;;;;;1.00;99.90;;;;;;5035098;28;19910;-79
2023/01/29 09:23:42;;;;;;;;;;;1.20;99.90;;;;;;5017862;28;19936;-80
2023/01/29 09:26:08;;;;;;;;;;;1.30;99.90;;;;;;5017282;28;19963;-79
2023/01/29 09:28:33;;;;;;;;;;;1.40;99.90;;;;;;5035395;28;19948;-80
2023/01/29 09:31:00;;;;;;;;;;;1.50;99.90;;;;;;5016743;28;19909;-80
2023/01/29 09:33:25;;;;;;;;;;;1.50;99.90;;;;;;5034767;28;20016;-80
2023/01/29 09:35:51;;;;;;;;;;;1.50;99.90;;;;;;5034931;28;19956;-80
2023/01/29 09:38:16;;;;;;;;;;;1.60;99.90;;;;;;5016568;28;19916;-79
2023/01/29 09:40:45;;;;;;;;;;;1.70;99.90;;;;;;5016696;28;20000;-79
2023/01/29 09:43:19;;;;;;;;;;;1.80;99.90;;;;;;5016995;28;19944;-80
2023/01/29 09:45:57;;;;;;;;;;;1.70;99.90;;;;;;5058950;22;20325;-80
2023/01/29 09:48:25;;;;;;;;;;;1.50;99.90;;;;;;5056867;28;20003;-79
2023/01/29 09:50:53;;;;;;;;;;;1.60;99.90;;;;;;5056126;28;19908;-80
2023/01/29 09:53:19;;;;;;;;;;;1.80;99.90;;;;;;5074188;28;19962;-79
2023/01/29 09:55:48;;;;;;;;;;;1.90;99.90;;;;;;5056398;28;19951;-80
2023/01/29 09:58:29;;;;;;;;;;;1.90;99.90;;;;;;5056314;28;19909;-80
2023/01/29 10:01:00;;;;;;;;;;;1.90;99.90;;;;;;5073730;28;19920;-80
2023/01/29 10:03:41;;;;;;;;;;;1.90;99.90;;;;;;5057015;28;19974;-80
2023/01/29 10:06:19;;;;;;;;;;;2.00;99.90;;;;;;5055880;28;19908;-79
2023/01/29 10:08:47;;;;;;;;;;;2.00;99.90;;;;;;5073093;28;20011;-80
2023/01/29 10:11:13;;;;;;;;;;;2.20;99.90;;;;;;5055369;28;19958;-80
2023/01/29 10:13:38;;;;;;;;;;;2.20;99.90;;;;;;5073689;28;19962;-80
2023/01/29 10:16:15;;;;;;;;;;;2.20;99.90;;;;;;5055780;28;19920;-80
2023/01/29 10:19:07;;;;;;;;;;;2.10;99.90;;;;;;5073365;28;19908;-80
2023/01/29 10:21:48;;;;;;;;;;;2.30;99.90;;;;;;5052172;28;19908;-80
2023/01/29 10:24:19;;;;;;;;;;;2.30;99.90;;;;;;5073476;28;19913;-80
2023/01/29 10:26:45;;;;;;;;;;;2.40;99.90;;;;;;5073227;28;20011;-79
2023/01/29 10:29:15;;;;;;;;;;;2.40;99.90;;;;;;5055974;28;19955;-80
2023/01/29 10:31:40;;;;;;;;;;;2.30;99.90;;;;;;5054804;28;19909;-80
2023/01/29 10:34:10;;;;;;;;;;;2.30;99.90;;;;;;5073277;28;20484;-80
2023/01/29 10:36:41;;;;;;;;;;;2.40;99.90;;;;;;5073532;28;19931;-80
2023/01/29 10:39:13;;;;;;;;;;;2.50;99.90;;;;;;5073403;28;19908;-80
2023/01/29 10:41:42;;;;;;;;;;;2.60;99.90;;;;;;5073548;28;19908;-80
2023/01/29 10:44:16;;;;;;;;;;;2.80;99.90;;;;;;5073348;28;19912;-79
2023/01/29 10:46:48;;;;;;;;;;;2.90;99.90;;;;;;5073759;28;19958;-80
2023/01/29 10:49:37;;;;;;;;;;;2.90;99.90;;;;;;5055322;28;19920;-79
2023/01/29 10:52:18;;;;;;;;;;;3.00;99.90;;;;;;5027759;28;19948;-80
2023/01/29 10:54:43;;;;;;;;;;;3.00;99.90;;;;;;5055233;28;19916;-79
2023/01/29 10:57:15;;;;;;;;;;;3.10;99.90;;;;;;5055135;28;19978;-80
2023/01/29 10:59:53;;;;;;;;;;;3.20;99.90;;;;;;5054686;28;19943;-80
2023/01/29 11:02:20;;;;;;;;;;;3.00;99.90;;;;;;5072936;28;19916;-79
2023/01/29 11:04:46;;;;;;;;;;;2.90;99.90;;;;;;5055356;28;19996;-79
2023/01/29 11:07:12;;;;;;;;;;;2.90;99.90;;;;;;5054803;28;19948;-80
2023/01/29 11:09:42;;;;;;;;;;;3.10;99.90;;;;;;5055202;28;20278;-80
2023/01/29 11:12:13;;;;;;;;;;;3.30;99.90;;;;;;5073167;28;19955;-79
2023/01/29 11:14:57;;;;;;;;;;;3.50;99.90;;;;;;5054608;28;20421;-80
2023/01/29 11:17:23;;;;;;;;;;;3.60;99.90;;;;;;5073120;28;19908;-80
2023/01/29 11:19:50;;;;;;;;;;;3.50;99.90;;;;;;5035587;28;19920;-80
2023/01/29 11:22:18;;;;;;;;;;;3.50;99.90;;;;;;5042295;28;20388;-80
2023/01/29 11:24:44;;;;;;;;;;;3.50;99.90;;;;;;5037643;28;19963;-80
2023/01/29 11:27:36;;;;;;;;;;;3.50;99.90;;;;;;5040982;28;20003;-80
2023/01/29 11:30:01;;;;;;;;;;;3.50;99.90;;;;;;5046223;28;19920;-80
2023/01/29 11:32:29;;;;;;;;;;;3.40;99.90;;;;;;5054089;28;19910;-80
2023/01/29 11:34:59;;;;;;;;;;;3.30;99.90;;;;;;5020838;28;19913;-80
2023/01/29 11:37:32;;;;;;;;;;;3.30;99.90;;;;;;5036592;28;20012;-80
2023/01/29 11:39:57;;;;;;;;;;;3.20;99.90;;;;;;5037221;28;19909;-80
2023/01/29 11:42:25;;;;;;;;;;;3.20;99.90;;;;;;5054026;28;20009;-80
2023/01/29 11:44:51;;;;;;;;;;;3.10;99.90;;;;;;5035959;28;20341;-79
2023/01/29 11:47:22;;;;;;;;;;;3.10;99.90;;;;;;5038949;28;19913;-80
2023/01/29 11:49:49;;;;;;;;;;;3.10;99.90;;;;;;5039391;28;19915;-80
2023/01/29 11:52:17;;;;;;;;;;;3.10;99.90;;;;;;5041192;28;20289;-80
2023/01/29 11:54:45;;;;;;;;;;;3.20;99.90;;;;;;5058608;28;20362;-80
2023/01/29 11:57:19;;;;;;;;;;;3.30;99.90;;;;;;5058272;28;19944;-80
2023/01/29 11:59:48;;;;;;;;;;;3.30;99.90;;;;;;5057666;28;19995;-80
2023/01/29 12:02:26;;;;;;;;;;;3.30;99.90;;;;;;5040309;28;19916;-80
2023/01/29 12:04:54;;;;;;;;;;;3.30;99.90;;;;;;5057517;28;19916;-80
2023/01/29 12:07:20;;;;;;;;;;;3.40;99.90;;;;;;5058398;28;20378;-80
2023/01/29 12:09:51;;;;;;;;;;;3.40;99.90;;;;;;5033529;28;19916;-78
2023/01/29 12:12:26;;;;;;;;;;;3.60;99.90;;;;;;5038616;28;20322;-80
2023/01/29 12:15:02;;;;;;;;;;;3.70;99.90;;;;;;5038981;28;19909;-80
2023/01/29 12:17:29;;;;;;;;;;;3.70;99.90;;;;;;5040666;28;19999;-80
2023/01/29 12:20:01;;;;;;;;;;;3.70;99.90;;;;;;5040118;28;20012;-81
2023/01/29 12:22:38;;;;;;;;;;;3.80;99.90;;;;;;5043701;28;20285;-78
2023/01/29 12:25:17;;;;;;;;;;;3.80;99.90;;;;;;5046610;28;19909;-80
2023/01/29 12:27:46;;;;;;;;;;;3.90;99.90;;;;;;5039441;28;19955;-79
2023/01/29 12:30:25;;;;;;;;;;;4.00;99.90;;;;;;5058453;28;19913;-80
2023/01/29 12:32:58;;;;;;;;;;;4.10;99.90;;;;;;5046523;28;19913;-81
2023/01/29 12:35:27;;;;;;;;;;;4.10;99.90;;;;;;5039378;28;19933;-81
2023/01/29 12:37:56;;;;;;;;;;;4.20;99.90;;;;;;5040050;28;19909;-81
2023/01/29 12:40:25;;;;;;;;;;;4.40;99.90;;;;;;5021509;28;19928;-80
2023/01/29 12:42:53;;;;;;;;;;;4.50;99.90;;;;;;5039954;28;19913;-81
2023/01/29 12:45:21;;;;;;;;;;;4.50;99.90;;;;;;5039505;28;20421;-81
2023/01/29 12:48:05;;;;;;;;;;;4.50;99.90;;;;;;5022227;28;19909;-81
2023/01/29 12:50:33;;;;;;;;;;;4.40;99.90;;;;;;5039149;28;19910;-81
2023/01/29 12:53:02;;;;;;;;;;;4.50;99.90;;;;;;5021956;28;20259;-81
2023/01/29 12:55:40;;;;;;;;;;;4.50;99.90;;;;;;5039536;28;19958;-83
2023/01/29 12:58:18;;;;;;;;;;;4.60;99.90;;;;;;5039143;28;20561;-81
2023/01/29 13:00:45;;;;;;;;;;;4.70;99.90;;;;;;5021826;28;19963;-81
2023/01/29 13:03:15;;;;;;;;;;;4.80;99.90;;;;;;5036988;28;20008;-81
2023/01/29 13:06:05;;;;;;;;;;;4.80;99.90;;;;;;5038966;28;19992;-81
2023/01/29 13:08:44;;;;;;;;;;;4.80;99.90;;;;;;5020809;28;19992;-81
2023/01/29 13:11:11;;;;;;;;;;;4.80;99.90;;;;;;5038273;28;19956;-81
2023/01/29 13:13:57;;;;;;;;;;;4.80;99.90;;;;;;5039108;28;19972;-81
2023/01/29 13:16:26;;;;;;;;;;;4.80;99.90;;;;;;5019775;28;19909;-79
2023/01/29 13:19:03;;;;;;;;;;;4.80;99.90;;;;;;5038480;28;20011;-81
2023/01/29 13:21:39;;;;;;;;;;;4.90;99.90;;;;;;5037956;28;19913;-81
2023/01/29 13:24:11;;;;;;;;;;;4.90;99.90;;;;;;5038147;28;19917;-79
2023/01/29 13:26:36;;;;;;;;;;;5.00;99.90;;;;;;5038081;28;19920;-81
2023/01/29 13:29:04;;;;;;;;;;;5.00;99.90;;;;;;5037842;28;20004;-81
2023/01/29 13:31:30;;;;;;;;;;;5.00;99.90;;;;;;5037904;28;19909;-81
2023/01/29 13:34:08;;;;;;;;;;;5.00;99.90;;;;;;5019805;28;19932;-81
2023/01/29 13:36:35;;;;;;;;;;;5.00;99.90;;;;;;5035979;28;20136;-81
2023/01/29 13:39:05;;;;;;;;;;;5.10;99.90;;;;;;5037591;28;20296;-81
2023/01/29 13:41:32;;;;;;;;;;;5.10;99.90;;;;;;5019181;28;20387;-81
2023/01/29 13:43:58;;;;;;;;;;;5.10;99.90;;;;;;5018777;28;20294;-81
2023/01/29 13:46:23;;;;;;;;;;;5.10;99.90;;;;;;5035792;28;19925;-81
2023/01/29 13:48:50;;;;;;;;;;;5.10;99.90;;;;;;5036981;28;19915;-79
2023/01/29 13:51:19;;;;;;;;;;;5.10;99.90;;;;;;5036825;28;19909;-80
2023/01/29 13:53:52;;;;;;;;;;;5.00;99.90;;;;;;5036989;28;19924;-80
2023/01/29 13:56:28;;;;;;;;;;;5.00;99.90;;;;;;5036978;28;20393;-81
2023/01/29 13:58:55;;;;;;;;;;;5.00;99.90;;;;;;5019736;28;19909;-81
2023/01/29 14:01:39;;;;;;;;;;;4.90;99.90;;;;;;5018657;28;20012;-81
2023/01/29 14:04:21;;;;;;;;;;;4.70;99.90;;;;;;5035488;28;19917;-81
2023/01/29 14:06:48;;;;;;;;;;;4.70;99.90;;;;;;5036741;28;19917;-81
2023/01/29 14:09:29;;;;;;;;;;;4.70;99.90;;;;;;5018576;28;19916;-79
2023/01/29 14:11:54;;;;;;;;;;;4.80;99.90;;;;;;5018306;28;19913;-81
2023/01/29 14:14:38;;;;;;;;;;;4.80;99.90;;;;;;5037046;28;19963;-80
2023/01/29 14:17:05;;;;;;;;;;;4.70;99.90;;;;;;5034628;28;20047;-81
2023/01/29 14:19:31;;;;;;;;;;;4.60;99.90;;;;;;5036811;28;19940;-81
2023/01/29 14:21:57;;;;;;;;;;;4.70;99.90;;;;;;5035080;28;19909;-81
2023/01/29 14:24:27;;;;;;;;;;;4.70;99.90;;;;;;5035469;28;19959;-81
2023/01/29 14:26:53;;;;;;;;;;;4.70;99.90;;;;;;5035796;28;19909;-81
2023/01/29 14:29:27;;;;;;;;;;;4.80;99.90;;;;;;5035046;28;19940;-81
2023/01/29 14:32:04;;;;;;;;;;;4.90;99.90;;;;;;5018125;28;19909;-79
2023/01/29 14:34:49;;;;;;;;;;;4.90;99.90;;;;;;5036404;28;19913;-79
2023/01/29 14:37:15;;;;;;;;;;;4.90;99.90;;;;;;5037415;28;19909;-80
2023/01/29 14:39:49;;;;;;;;;;;5.00;99.90;;;;;;5036274;28;19931;-81
2023/01/29 14:42:33;;;;;;;;;;;5.00;99.90;;;;;;5020906;28;19991;-81
2023/01/29 14:45:05;;;;;;;;;;;5.00;99.90;;;;;;5038626;28;19967;-81
2023/01/29 14:47:33;;;;;;;;;;;5.00;99.90;;;;;;5020587;28;20007;-81
2023/01/29 14:50:00;;;;;;;;;;;5.00;99.90;;;;;;5055140;28;19964;-81
2023/01/29 14:52:37;;;;;;;;;;;5.10;99.90;;;;;;5038243;28;19919;-81
2023/01/29 14:55:05;;;;;;;;;;;5.10;99.90;;;;;;5056721;28;19967;-81
2023/01/29 14:57:32;;;;;;;;;;;5.20;99.90;;;;;;5038571;28;19915;-81
2023/01/29 14:59:59;;;;;;;;;;;5.30;99.90;;;;;;5039225;28;19909;-81
2023/01/29 15:02:36;;;;;;;;;;;5.30;99.90;;;;;;5056192;28;19912;-81